Hlavní strana
METAR-TAF:

METAR-TAF

Letiště :

Kuvajt, Kuvajt

zeměpisná šířka: 29-13N, zeměpisná délka: 047-59E, výška: 55 m

Aktuální stav počasí

Zpráva byla vytvořena před 40 minutami, v 05:00 UTC
Severovýchodní vítr 4 kt
Teplota 35°C
Vlhkost vzduchu 23%
Tlak 1010 hPa
Viditelnost 10 km a více
Žádná oblačnost pod 1500 m, nevyskytují se cumulonimby.

METAR: OKBK 240500Z 04004KT CAVOK 35/11 Q1010 NOSIG

Čas: 08:40 (05:40 UTC)

Předpověď počasí

Zpráva byla vytvořena před 55 minutami, v 04:45 UTC
Předpověď platná od 24 v 06 UTC do 25 v 12 UTC
vítr z různých směrů 3 kt
Viditelnost: 7000 m
Změna
od 24 v 07 UTC do 24 v 09 UTC
Severní vítr 12 kt

TAF: OKBK 240445Z 2406/2512 VRB03KT 7000 NSC BECMG 2407/2409 35012KT

Stav a předpovědi počasí z více než 4 000 letišť (zprávy METAR a TAF).

Červené a žluté tečky na mapě představují dostupné meteorologické stanice.

Když kurzor umístíte na tečku, zobrazí se název stanice.

Pak kliknutím zobrazíte stav a předpověď počasí.

Chcete-li změnit mapu, kliknutím na zelené tlačítko se znaménkem +mapu přiblížíte, kliknutím na zelené tlačítko se znaménkem – mapu oddálíte a kliknutím na zelené šipky přejdete na sousední mapy.


METAR-TAF: